sensor_id;sensor_type;location;lat;lon;timestamp;P1;durP1;ratioP1;P2;durP2;ratioP2
6117;SDS011;3089;48.202;11.510;2022-08-19T00:01:37;4.80;;;2.67;;
6117;SDS011;3089;48.202;11.510;2022-08-19T00:04:06;5.13;;;2.70;;
6117;SDS011;3089;48.202;11.510;2022-08-19T00:06:37;8.17;;;2.77;;
6117;SDS011;3089;48.202;11.510;2022-08-19T00:09:08;7.63;;;3.03;;
6117;SDS011;3089;48.202;11.510;2022-08-19T00:11:37;5.07;;;2.70;;
6117;SDS011;3089;48.202;11.510;2022-08-19T00:14:06;5.13;;;2.50;;
6117;SDS011;3089;48.202;11.510;2022-08-19T00:16:36;5.70;;;3.27;;
6117;SDS011;3089;48.202;11.510;2022-08-19T00:19:05;5.77;;;2.97;;
6117;SDS011;3089;48.202;11.510;2022-08-19T00:21:33;5.83;;;3.07;;
6117;SDS011;3089;48.202;11.510;2022-08-19T00:24:04;5.40;;;3.30;;
6117;SDS011;3089;48.202;11.510;2022-08-19T00:26:34;6.30;;;3.40;;
6117;SDS011;3089;48.202;11.510;2022-08-19T00:29:02;6.70;;;3.50;;
6117;SDS011;3089;48.202;11.510;2022-08-19T00:31:31;6.60;;;3.53;;
6117;SDS011;3089;48.202;11.510;2022-08-19T00:33:59;7.90;;;3.90;;
6117;SDS011;3089;48.202;11.510;2022-08-19T00:36:27;10.80;;;3.73;;
6117;SDS011;3089;48.202;11.510;2022-08-19T00:38:55;6.67;;;3.77;;
6117;SDS011;3089;48.202;11.510;2022-08-19T00:41:25;6.80;;;3.87;;
6117;SDS011;3089;48.202;11.510;2022-08-19T00:43:58;7.53;;;4.97;;
6117;SDS011;3089;48.202;11.510;2022-08-19T00:46:28;7.17;;;4.50;;
6117;SDS011;3089;48.202;11.510;2022-08-19T00:48:56;6.33;;;3.80;;
6117;SDS011;3089;48.202;11.510;2022-08-19T00:51:24;6.47;;;4.10;;
6117;SDS011;3089;48.202;11.510;2022-08-19T00:53:54;8.10;;;5.17;;
6117;SDS011;3089;48.202;11.510;2022-08-19T00:56:23;7.10;;;4.27;;
6117;SDS011;3089;48.202;11.510;2022-08-19T00:58:52;8.23;;;5.13;;
6117;SDS011;3089;48.202;11.510;2022-08-19T01:01:24;7.87;;;5.40;;
6117;SDS011;3089;48.202;11.510;2022-08-19T01:03:52;8.70;;;5.53;;
6117;SDS011;3089;48.202;11.510;2022-08-19T01:06:23;8.13;;;5.13;;
6117;SDS011;3089;48.202;11.510;2022-08-19T01:08:51;8.27;;;5.10;;
6117;SDS011;3089;48.202;11.510;2022-08-19T01:11:20;8.50;;;5.27;;
6117;SDS011;3089;48.202;11.510;2022-08-19T01:13:48;8.50;;;5.57;;
6117;SDS011;3089;48.202;11.510;2022-08-19T01:16:19;8.63;;;5.47;;
6117;SDS011;3089;48.202;11.510;2022-08-19T01:18:53;11.17;;;5.80;;
6117;SDS011;3089;48.202;11.510;2022-08-19T01:21:23;7.80;;;5.03;;
6117;SDS011;3089;48.202;11.510;2022-08-19T01:23:57;8.20;;;5.10;;
6117;SDS011;3089;48.202;11.510;2022-08-19T01:26:26;8.40;;;4.97;;
6117;SDS011;3089;48.202;11.510;2022-08-19T01:28:57;10.00;;;5.83;;
6117;SDS011;3089;48.202;11.510;2022-08-19T01:31:27;8.03;;;5.40;;
6117;SDS011;3089;48.202;11.510;2022-08-19T01:33:58;7.73;;;5.33;;
6117;SDS011;3089;48.202;11.510;2022-08-19T01:36:29;9.33;;;5.23;;
6117;SDS011;3089;48.202;11.510;2022-08-19T01:39:00;8.97;;;5.00;;
6117;SDS011;3089;48.202;11.510;2022-08-19T01:41:29;9.07;;;6.03;;
6117;SDS011;3089;48.202;11.510;2022-08-19T01:43:57;9.60;;;6.00;;
6117;SDS011;3089;48.202;11.510;2022-08-19T01:46:43;8.93;;;5.30;;
6117;SDS011;3089;48.202;11.510;2022-08-19T01:49:13;10.10;;;5.60;;
6117;SDS011;3089;48.202;11.510;2022-08-19T01:51:41;8.97;;;5.73;;
6117;SDS011;3089;48.202;11.510;2022-08-19T01:54:11;9.43;;;5.43;;
6117;SDS011;3089;48.202;11.510;2022-08-19T01:56:54;9.00;;;5.67;;
6117;SDS011;3089;48.202;11.510;2022-08-19T01:59:25;9.40;;;5.90;;
6117;SDS011;3089;48.202;11.510;2022-08-19T02:01:53;9.10;;;5.80;;
6117;SDS011;3089;48.202;11.510;2022-08-19T02:04:21;11.50;;;6.67;;
6117;SDS011;3089;48.202;11.510;2022-08-19T02:06:49;9.50;;;6.00;;
6117;SDS011;3089;48.202;11.510;2022-08-19T02:09:18;8.60;;;5.70;;
6117;SDS011;3089;48.202;11.510;2022-08-19T02:11:46;9.90;;;6.10;;
6117;SDS011;3089;48.202;11.510;2022-08-19T02:14:14;10.13;;;6.07;;
6117;SDS011;3089;48.202;11.510;2022-08-19T02:16:42;9.17;;;5.57;;
6117;SDS011;3089;48.202;11.510;2022-08-19T02:19:10;8.33;;;5.57;;
6117;SDS011;3089;48.202;11.510;2022-08-19T02:21:38;7.67;;;5.27;;
6117;SDS011;3089;48.202;11.510;2022-08-19T02:24:05;8.57;;;5.87;;
6117;SDS011;3089;48.202;11.510;2022-08-19T02:26:35;8.90;;;5.23;;
6117;SDS011;3089;48.202;11.510;2022-08-19T02:29:03;10.10;;;5.50;;
6117;SDS011;3089;48.202;11.510;2022-08-19T02:31:31;8.37;;;5.90;;
6117;SDS011;3089;48.202;11.510;2022-08-19T02:33:59;8.37;;;5.40;;
6117;SDS011;3089;48.202;11.510;2022-08-19T02:36:27;10.90;;;6.47;;
6117;SDS011;3089;48.202;11.510;2022-08-19T02:38:56;10.83;;;5.57;;
6117;SDS011;3089;48.202;11.510;2022-08-19T02:41:24;8.20;;;5.27;;
6117;SDS011;3089;48.202;11.510;2022-08-19T02:43:56;9.70;;;5.67;;
6117;SDS011;3089;48.202;11.510;2022-08-19T02:46:45;10.20;;;5.50;;
6117;SDS011;3089;48.202;11.510;2022-08-19T02:49:17;8.00;;;4.70;;
6117;SDS011;3089;48.202;11.510;2022-08-19T02:51:46;8.63;;;5.77;;
6117;SDS011;3089;48.202;11.510;2022-08-19T02:54:14;6.30;;;3.90;;
6117;SDS011;3089;48.202;11.510;2022-08-19T02:56:43;8.47;;;4.87;;
6117;SDS011;3089;48.202;11.510;2022-08-19T02:59:13;8.17;;;5.03;;
6117;SDS011;3089;48.202;11.510;2022-08-19T03:01:41;7.30;;;4.57;;
6117;SDS011;3089;48.202;11.510;2022-08-19T03:04:10;7.37;;;4.40;;
6117;SDS011;3089;48.202;11.510;2022-08-19T03:06:39;7.23;;;4.40;;
6117;SDS011;3089;48.202;11.510;2022-08-19T03:09:07;8.23;;;4.20;;
6117;SDS011;3089;48.202;11.510;2022-08-19T03:11:35;6.90;;;4.50;;
6117;SDS011;3089;48.202;11.510;2022-08-19T03:14:04;9.13;;;5.40;;
6117;SDS011;3089;48.202;11.510;2022-08-19T03:16:40;7.87;;;4.60;;
6117;SDS011;3089;48.202;11.510;2022-08-19T03:19:10;6.80;;;4.30;;
6117;SDS011;3089;48.202;11.510;2022-08-19T03:21:38;7.33;;;4.53;;
6117;SDS011;3089;48.202;11.510;2022-08-19T03:24:07;7.07;;;4.53;;
6117;SDS011;3089;48.202;11.510;2022-08-19T03:26:38;7.70;;;4.97;;
6117;SDS011;3089;48.202;11.510;2022-08-19T03:29:06;6.90;;;4.73;;
6117;SDS011;3089;48.202;11.510;2022-08-19T03:31:40;8.93;;;5.00;;
6117;SDS011;3089;48.202;11.510;2022-08-19T03:34:20;7.73;;;5.10;;
6117;SDS011;3089;48.202;11.510;2022-08-19T03:36:52;8.00;;;4.23;;
6117;SDS011;3089;48.202;11.510;2022-08-19T03:39:21;7.90;;;5.10;;
6117;SDS011;3089;48.202;11.510;2022-08-19T03:41:51;7.27;;;4.43;;
6117;SDS011;3089;48.202;11.510;2022-08-19T03:44:43;9.53;;;6.03;;
6117;SDS011;3089;48.202;11.510;2022-08-19T03:47:13;8.37;;;5.23;;
6117;SDS011;3089;48.202;11.510;2022-08-19T03:49:42;9.73;;;5.17;;
6117;SDS011;3089;48.202;11.510;2022-08-19T03:52:11;8.80;;;5.20;;
6117;SDS011;3089;48.202;11.510;2022-08-19T03:54:40;8.73;;;5.60;;
6117;SDS011;3089;48.202;11.510;2022-08-19T03:57:08;8.63;;;5.00;;
6117;SDS011;3089;48.202;11.510;2022-08-19T03:59:37;8.97;;;6.07;;
6117;SDS011;3089;48.202;11.510;2022-08-19T04:02:07;9.40;;;5.90;;
6117;SDS011;3089;48.202;11.510;2022-08-19T04:04:38;12.70;;;5.57;;
6117;SDS011;3089;48.202;11.510;2022-08-19T04:07:10;10.10;;;6.23;;
6117;SDS011;3089;48.202;11.510;2022-08-19T04:09:42;10.30;;;5.60;;
6117;SDS011;3089;48.202;11.510;2022-08-19T04:12:10;8.83;;;5.47;;
6117;SDS011;3089;48.202;11.510;2022-08-19T04:14:38;9.00;;;5.50;;
6117;SDS011;3089;48.202;11.510;2022-08-19T04:17:06;9.40;;;5.73;;
6117;SDS011;3089;48.202;11.510;2022-08-19T04:19:35;11.70;;;5.80;;
6117;SDS011;3089;48.202;11.510;2022-08-19T04:22:04;8.50;;;5.40;;
6117;SDS011;3089;48.202;11.510;2022-08-19T04:24:35;13.87;;;6.47;;
6117;SDS011;3089;48.202;11.510;2022-08-19T04:27:03;9.80;;;5.07;;
6117;SDS011;3089;48.202;11.510;2022-08-19T04:29:32;10.03;;;5.90;;
6117;SDS011;3089;48.202;11.510;2022-08-19T04:32:00;8.40;;;5.87;;
6117;SDS011;3089;48.202;11.510;2022-08-19T04:34:34;9.57;;;5.83;;
6117;SDS011;3089;48.202;11.510;2022-08-19T04:37:24;10.60;;;6.17;;
6117;SDS011;3089;48.202;11.510;2022-08-19T04:40:01;12.13;;;5.50;;
6117;SDS011;3089;48.202;11.510;2022-08-19T04:42:48;8.63;;;5.63;;
6117;SDS011;3089;48.202;11.510;2022-08-19T04:45:16;8.03;;;5.40;;
6117;SDS011;3089;48.202;11.510;2022-08-19T04:47:43;10.43;;;6.80;;
6117;SDS011;3089;48.202;11.510;2022-08-19T04:50:23;9.33;;;6.07;;
6117;SDS011;3089;48.202;11.510;2022-08-19T04:52:53;9.83;;;6.27;;
6117;SDS011;3089;48.202;11.510;2022-08-19T04:55:21;12.17;;;6.83;;
6117;SDS011;3089;48.202;11.510;2022-08-19T04:57:51;8.53;;;5.80;;
6117;SDS011;3089;48.202;11.510;2022-08-19T05:00:19;10.47;;;6.27;;
6117;SDS011;3089;48.202;11.510;2022-08-19T05:02:47;8.70;;;5.97;;
6117;SDS011;3089;48.202;11.510;2022-08-19T05:05:15;10.70;;;6.37;;
6117;SDS011;3089;48.202;11.510;2022-08-19T05:07:43;9.87;;;5.87;;
6117;SDS011;3089;48.202;11.510;2022-08-19T05:10:13;12.40;;;6.47;;
6117;SDS011;3089;48.202;11.510;2022-08-19T05:12:40;10.47;;;5.90;;
6117;SDS011;3089;48.202;11.510;2022-08-19T05:15:09;10.30;;;6.40;;
6117;SDS011;3089;48.202;11.510;2022-08-19T05:17:37;15.33;;;6.93;;
6117;SDS011;3089;48.202;11.510;2022-08-19T05:20:25;10.33;;;6.60;;
6117;SDS011;3089;48.202;11.510;2022-08-19T05:23:10;11.93;;;5.90;;
6117;SDS011;3089;48.202;11.510;2022-08-19T05:25:49;11.37;;;6.10;;
6117;SDS011;3089;48.202;11.510;2022-08-19T05:28:17;11.20;;;5.60;;
6117;SDS011;3089;48.202;11.510;2022-08-19T05:30:45;11.77;;;6.50;;
6117;SDS011;3089;48.202;11.510;2022-08-19T05:33:14;10.40;;;5.90;;
6117;SDS011;3089;48.202;11.510;2022-08-19T05:35:42;11.13;;;7.30;;
6117;SDS011;3089;48.202;11.510;2022-08-19T05:38:10;12.37;;;7.00;;
6117;SDS011;3089;48.202;11.510;2022-08-19T05:40:39;10.67;;;6.80;;
6117;SDS011;3089;48.202;11.510;2022-08-19T05:43:08;10.40;;;6.80;;
6117;SDS011;3089;48.202;11.510;2022-08-19T05:45:40;12.50;;;7.03;;
6117;SDS011;3089;48.202;11.510;2022-08-19T05:48:09;10.47;;;6.80;;
6117;SDS011;3089;48.202;11.510;2022-08-19T05:50:38;11.73;;;7.33;;
6117;SDS011;3089;48.202;11.510;2022-08-19T05:53:07;11.80;;;7.63;;
6117;SDS011;3089;48.202;11.510;2022-08-19T05:55:35;12.07;;;8.00;;
6117;SDS011;3089;48.202;11.510;2022-08-19T05:58:05;14.70;;;7.70;;
6117;SDS011;3089;48.202;11.510;2022-08-19T06:00:35;15.53;;;9.37;;
6117;SDS011;3089;48.202;11.510;2022-08-19T06:03:04;13.20;;;7.73;;
6117;SDS011;3089;48.202;11.510;2022-08-19T06:05:38;13.53;;;8.47;;
6117;SDS011;3089;48.202;11.510;2022-08-19T06:08:17;13.17;;;8.43;;
6117;SDS011;3089;48.202;11.510;2022-08-19T06:11:11;14.30;;;9.50;;
6117;SDS011;3089;48.202;11.510;2022-08-19T06:13:40;13.77;;;8.80;;
6117;SDS011;3089;48.202;11.510;2022-08-19T06:16:10;13.67;;;9.13;;
6117;SDS011;3089;48.202;11.510;2022-08-19T06:18:38;14.50;;;9.20;;
6117;SDS011;3089;48.202;11.510;2022-08-19T06:21:06;13.37;;;8.60;;
6117;SDS011;3089;48.202;11.510;2022-08-19T06:23:33;14.43;;;9.10;;
6117;SDS011;3089;48.202;11.510;2022-08-19T06:26:01;13.93;;;10.00;;
6117;SDS011;3089;48.202;11.510;2022-08-19T06:28:30;14.23;;;9.20;;
6117;SDS011;3089;48.202;11.510;2022-08-19T06:30:58;15.27;;;9.00;;
6117;SDS011;3089;48.202;11.510;2022-08-19T06:33:33;14.50;;;9.97;;
6117;SDS011;3089;48.202;11.510;2022-08-19T06:36:01;17.40;;;9.60;;
6117;SDS011;3089;48.202;11.510;2022-08-19T06:38:30;15.67;;;9.37;;
6117;SDS011;3089;48.202;11.510;2022-08-19T06:41:00;15.90;;;9.67;;
6117;SDS011;3089;48.202;11.510;2022-08-19T06:43:33;14.80;;;9.80;;
6117;SDS011;3089;48.202;11.510;2022-08-19T06:46:09;16.63;;;10.30;;
6117;SDS011;3089;48.202;11.510;2022-08-19T06:48:41;14.43;;;9.43;;
6117;SDS011;3089;48.202;11.510;2022-08-19T06:51:11;18.07;;;10.57;;
6117;SDS011;3089;48.202;11.510;2022-08-19T06:53:44;12.90;;;8.90;;
6117;SDS011;3089;48.202;11.510;2022-08-19T06:56:14;14.10;;;10.03;;
6117;SDS011;3089;48.202;11.510;2022-08-19T06:58:42;14.83;;;10.47;;
6117;SDS011;3089;48.202;11.510;2022-08-19T07:01:12;18.27;;;10.83;;
6117;SDS011;3089;48.202;11.510;2022-08-19T07:03:41;17.90;;;10.30;;
6117;SDS011;3089;48.202;11.510;2022-08-19T07:06:11;17.67;;;10.90;;
6117;SDS011;3089;48.202;11.510;2022-08-19T07:09:03;18.83;;;12.10;;
6117;SDS011;3089;48.202;11.510;2022-08-19T07:11:32;20.00;;;12.37;;
6117;SDS011;3089;48.202;11.510;2022-08-19T07:14:00;19.83;;;12.90;;
6117;SDS011;3089;48.202;11.510;2022-08-19T07:16:29;18.43;;;13.00;;
6117;SDS011;3089;48.202;11.510;2022-08-19T07:18:59;20.40;;;12.43;;
6117;SDS011;3089;48.202;11.510;2022-08-19T07:21:41;21.07;;;13.87;;
6117;SDS011;3089;48.202;11.510;2022-08-19T07:24:09;22.70;;;13.87;;
6117;SDS011;3089;48.202;11.510;2022-08-19T07:26:40;24.90;;;15.27;;
6117;SDS011;3089;48.202;11.510;2022-08-19T07:29:10;23.20;;;14.30;;
6117;SDS011;3089;48.202;11.510;2022-08-19T07:31:39;22.13;;;13.67;;
6117;SDS011;3089;48.202;11.510;2022-08-19T07:34:12;26.77;;;14.87;;
6117;SDS011;3089;48.202;11.510;2022-08-19T07:36:42;22.93;;;15.57;;
6117;SDS011;3089;48.202;11.510;2022-08-19T07:39:11;25.97;;;17.20;;
6117;SDS011;3089;48.202;11.510;2022-08-19T07:41:41;26.70;;;15.60;;
6117;SDS011;3089;48.202;11.510;2022-08-19T07:44:09;23.00;;;15.10;;
6117;SDS011;3089;48.202;11.510;2022-08-19T07:46:39;26.37;;;16.40;;
6117;SDS011;3089;48.202;11.510;2022-08-19T07:49:13;27.93;;;16.30;;
6117;SDS011;3089;48.202;11.510;2022-08-19T07:51:44;25.87;;;17.63;;
6117;SDS011;3089;48.202;11.510;2022-08-19T07:54:12;28.50;;;17.40;;
6117;SDS011;3089;48.202;11.510;2022-08-19T07:56:40;25.23;;;16.93;;
6117;SDS011;3089;48.202;11.510;2022-08-19T07:59:08;32.63;;;19.40;;
6117;SDS011;3089;48.202;11.510;2022-08-19T08:01:37;29.83;;;18.70;;
6117;SDS011;3089;48.202;11.510;2022-08-19T08:04:07;30.97;;;19.83;;
6117;SDS011;3089;48.202;11.510;2022-08-19T08:06:54;34.23;;;19.47;;
6117;SDS011;3089;48.202;11.510;2022-08-19T08:09:40;27.80;;;16.63;;
6117;SDS011;3089;48.202;11.510;2022-08-19T08:12:16;28.80;;;17.33;;
6117;SDS011;3089;48.202;11.510;2022-08-19T08:15:01;32.23;;;15.70;;
6117;SDS011;3089;48.202;11.510;2022-08-19T08:17:33;25.83;;;17.10;;
6117;SDS011;3089;48.202;11.510;2022-08-19T08:20:15;28.17;;;15.70;;
6117;SDS011;3089;48.202;11.510;2022-08-19T08:22:45;25.23;;;16.27;;
6117;SDS011;3089;48.202;11.510;2022-08-19T08:25:32;30.63;;;15.73;;
6117;SDS011;3089;48.202;11.510;2022-08-19T08:28:01;26.10;;;16.20;;
6117;SDS011;3089;48.202;11.510;2022-08-19T08:30:30;27.27;;;17.17;;
6117;SDS011;3089;48.202;11.510;2022-08-19T08:32:59;28.60;;;18.67;;
6117;SDS011;3089;48.202;11.510;2022-08-19T08:35:27;27.03;;;17.10;;
6117;SDS011;3089;48.202;11.510;2022-08-19T08:37:57;27.20;;;16.50;;
6117;SDS011;3089;48.202;11.510;2022-08-19T08:40:28;28.33;;;16.80;;
6117;SDS011;3089;48.202;11.510;2022-08-19T08:42:59;30.93;;;19.60;;
6117;SDS011;3089;48.202;11.510;2022-08-19T08:45:38;30.97;;;19.40;;
6117;SDS011;3089;48.202;11.510;2022-08-19T08:48:19;29.00;;;18.10;;
6117;SDS011;3089;48.202;11.510;2022-08-19T08:50:51;29.53;;;18.33;;
6117;SDS011;3089;48.202;11.510;2022-08-19T08:53:23;28.70;;;17.50;;
6117;SDS011;3089;48.202;11.510;2022-08-19T08:55:57;32.03;;;18.57;;
6117;SDS011;3089;48.202;11.510;2022-08-19T08:58:31;28.70;;;17.90;;
6117;SDS011;3089;48.202;11.510;2022-08-19T09:01:09;30.40;;;19.23;;
6117;SDS011;3089;48.202;11.510;2022-08-19T09:03:39;28.00;;;17.17;;
6117;SDS011;3089;48.202;11.510;2022-08-19T09:06:11;30.03;;;17.90;;
6117;SDS011;3089;48.202;11.510;2022-08-19T09:09:00;30.47;;;18.63;;
6117;SDS011;3089;48.202;11.510;2022-08-19T09:11:40;27.57;;;16.47;;
6117;SDS011;3089;48.202;11.510;2022-08-19T09:14:18;30.57;;;18.87;;
6117;SDS011;3089;48.202;11.510;2022-08-19T09:17:15;34.37;;;19.50;;
6117;SDS011;3089;48.202;11.510;2022-08-19T09:19:52;28.43;;;18.37;;
6117;SDS011;3089;48.202;11.510;2022-08-19T09:22:22;28.30;;;17.73;;
6117;SDS011;3089;48.202;11.510;2022-08-19T09:24:54;25.03;;;15.73;;
6117;SDS011;3089;48.202;11.510;2022-08-19T09:27:22;25.60;;;16.30;;
6117;SDS011;3089;48.202;11.510;2022-08-19T09:30:09;30.10;;;17.87;;
6117;SDS011;3089;48.202;11.510;2022-08-19T09:32:41;30.53;;;17.63;;
6117;SDS011;3089;48.202;11.510;2022-08-19T09:35:09;25.40;;;16.90;;
6117;SDS011;3089;48.202;11.510;2022-08-19T09:37:40;25.83;;;16.83;;
6117;SDS011;3089;48.202;11.510;2022-08-19T09:40:10;27.57;;;17.50;;
6117;SDS011;3089;48.202;11.510;2022-08-19T09:42:40;29.60;;;17.00;;
6117;SDS011;3089;48.202;11.510;2022-08-19T09:45:15;29.73;;;18.83;;
6117;SDS011;3089;48.202;11.510;2022-08-19T09:47:46;27.03;;;16.97;;
6117;SDS011;3089;48.202;11.510;2022-08-19T09:50:15;28.03;;;17.40;;
6117;SDS011;3089;48.202;11.510;2022-08-19T09:52:44;29.57;;;16.40;;
6117;SDS011;3089;48.202;11.510;2022-08-19T09:55:24;27.27;;;16.70;;
6117;SDS011;3089;48.202;11.510;2022-08-19T09:57:58;26.50;;;17.93;;
6117;SDS011;3089;48.202;11.510;2022-08-19T10:00:27;33.80;;;19.00;;
6117;SDS011;3089;48.202;11.510;2022-08-19T10:02:57;28.07;;;17.67;;
6117;SDS011;3089;48.202;11.510;2022-08-19T10:05:26;32.20;;;19.63;;
6117;SDS011;3089;48.202;11.510;2022-08-19T10:08:14;30.43;;;17.70;;
6117;SDS011;3089;48.202;11.510;2022-08-19T10:10:44;30.10;;;19.97;;
6117;SDS011;3089;48.202;11.510;2022-08-19T10:13:13;29.07;;;17.40;;
6117;SDS011;3089;48.202;11.510;2022-08-19T10:15:43;29.97;;;17.60;;
6117;SDS011;3089;48.202;11.510;2022-08-19T10:18:13;27.57;;;15.57;;
6117;SDS011;3089;48.202;11.510;2022-08-19T10:20:42;27.40;;;16.27;;
6117;SDS011;3089;48.202;11.510;2022-08-19T10:23:16;25.33;;;15.17;;
6117;SDS011;3089;48.202;11.510;2022-08-19T10:25:46;23.57;;;14.80;;
6117;SDS011;3089;48.202;11.510;2022-08-19T10:28:14;25.00;;;15.00;;
6117;SDS011;3089;48.202;11.510;2022-08-19T10:30:44;21.50;;;14.40;;
6117;SDS011;3089;48.202;11.510;2022-08-19T10:33:13;21.00;;;14.30;;
6117;SDS011;3089;48.202;11.510;2022-08-19T10:36:02;22.60;;;14.20;;
6117;SDS011;3089;48.202;11.510;2022-08-19T10:38:31;20.33;;;13.77;;
6117;SDS011;3089;48.202;11.510;2022-08-19T10:41:07;20.70;;;13.43;;
6117;SDS011;3089;48.202;11.510;2022-08-19T10:43:35;19.73;;;12.97;;
6117;SDS011;3089;48.202;11.510;2022-08-19T10:46:06;19.23;;;12.20;;
6117;SDS011;3089;48.202;11.510;2022-08-19T10:48:42;17.07;;;11.20;;
6117;SDS011;3089;48.202;11.510;2022-08-19T10:51:10;19.03;;;11.33;;
6117;SDS011;3089;48.202;11.510;2022-08-19T10:53:56;15.47;;;10.20;;
6117;SDS011;3089;48.202;11.510;2022-08-19T10:56:26;15.53;;;10.40;;
6117;SDS011;3089;48.202;11.510;2022-08-19T10:59:12;10.80;;;7.03;;
6117;SDS011;3089;48.202;11.510;2022-08-19T11:01:41;12.20;;;7.47;;
6117;SDS011;3089;48.202;11.510;2022-08-19T11:04:11;8.70;;;4.73;;
6117;SDS011;3089;48.202;11.510;2022-08-19T11:06:42;12.37;;;5.03;;
6117;SDS011;3089;48.202;11.510;2022-08-19T11:09:13;8.43;;;3.50;;
6117;SDS011;3089;48.202;11.510;2022-08-19T11:11:43;6.13;;;3.90;;
6117;SDS011;3089;48.202;11.510;2022-08-19T11:14:12;5.40;;;3.00;;
6117;SDS011;3089;48.202;11.510;2022-08-19T11:16:41;3.80;;;1.87;;
6117;SDS011;3089;48.202;11.510;2022-08-19T11:19:10;4.83;;;2.40;;
6117;SDS011;3089;48.202;11.510;2022-08-19T11:21:39;5.10;;;2.80;;
6117;SDS011;3089;48.202;11.510;2022-08-19T11:24:09;4.30;;;2.20;;
6117;SDS011;3089;48.202;11.510;2022-08-19T11:26:41;4.13;;;1.70;;
6117;SDS011;3089;48.202;11.510;2022-08-19T11:29:12;3.60;;;1.80;;
6117;SDS011;3089;48.202;11.510;2022-08-19T11:31:41;4.43;;;2.43;;
6117;SDS011;3089;48.202;11.510;2022-08-19T11:34:13;3.47;;;1.67;;
6117;SDS011;3089;48.202;11.510;2022-08-19T11:36:45;4.17;;;2.10;;
6117;SDS011;3089;48.202;11.510;2022-08-19T11:39:15;4.20;;;2.07;;
6117;SDS011;3089;48.202;11.510;2022-08-19T11:41:46;4.13;;;2.27;;
6117;SDS011;3089;48.202;11.510;2022-08-19T11:44:14;5.97;;;2.03;;
6117;SDS011;3089;48.202;11.510;2022-08-19T11:46:43;3.50;;;1.70;;
6117;SDS011;3089;48.202;11.510;2022-08-19T11:49:12;3.50;;;1.70;;
6117;SDS011;3089;48.202;11.510;2022-08-19T11:51:41;3.57;;;1.63;;
6117;SDS011;3089;48.202;11.510;2022-08-19T11:54:10;3.67;;;1.70;;
6117;SDS011;3089;48.202;11.510;2022-08-19T11:56:39;3.33;;;1.67;;
6117;SDS011;3089;48.202;11.510;2022-08-19T11:59:09;4.13;;;1.83;;
6117;SDS011;3089;48.202;11.510;2022-08-19T12:01:40;2.90;;;1.30;;
6117;SDS011;3089;48.202;11.510;2022-08-19T12:04:09;3.03;;;1.47;;
6117;SDS011;3089;48.202;11.510;2022-08-19T12:06:38;3.37;;;1.70;;
6117;SDS011;3089;48.202;11.510;2022-08-19T12:09:07;2.97;;;1.33;;
6117;SDS011;3089;48.202;11.510;2022-08-19T12:11:37;2.97;;;1.53;;
6117;SDS011;3089;48.202;11.510;2022-08-19T12:14:06;3.10;;;1.63;;
6117;SDS011;3089;48.202;11.510;2022-08-19T12:16:43;3.20;;;1.30;;
6117;SDS011;3089;48.202;11.510;2022-08-19T12:19:17;2.90;;;1.27;;
6117;SDS011;3089;48.202;11.510;2022-08-19T12:21:48;3.40;;;1.33;;
6117;SDS011;3089;48.202;11.510;2022-08-19T12:24:16;3.00;;;1.37;;
6117;SDS011;3089;48.202;11.510;2022-08-19T12:26:48;3.70;;;1.40;;
6117;SDS011;3089;48.202;11.510;2022-08-19T12:29:19;2.90;;;1.20;;
6117;SDS011;3089;48.202;11.510;2022-08-19T12:31:50;2.40;;;1.00;;
6117;SDS011;3089;48.202;11.510;2022-08-19T12:34:19;3.00;;;1.07;;
6117;SDS011;3089;48.202;11.510;2022-08-19T12:36:47;2.93;;;1.17;;
6117;SDS011;3089;48.202;11.510;2022-08-19T12:39:15;2.53;;;1.00;;
6117;SDS011;3089;48.202;11.510;2022-08-19T12:41:43;2.80;;;1.10;;
6117;SDS011;3089;48.202;11.510;2022-08-19T12:44:20;2.63;;;1.10;;
6117;SDS011;3089;48.202;11.510;2022-08-19T12:47:00;2.80;;;1.20;;
6117;SDS011;3089;48.202;11.510;2022-08-19T12:49:30;5.40;;;1.40;;
6117;SDS011;3089;48.202;11.510;2022-08-19T12:52:19;4.20;;;1.50;;
6117;SDS011;3089;48.202;11.510;2022-08-19T12:54:48;8.07;;;1.40;;
6117;SDS011;3089;48.202;11.510;2022-08-19T12:57:19;2.80;;;1.30;;
6117;SDS011;3089;48.202;11.510;2022-08-19T12:59:57;2.83;;;1.07;;
6117;SDS011;3089;48.202;11.510;2022-08-19T13:02:27;2.77;;;1.10;;
6117;SDS011;3089;48.202;11.510;2022-08-19T13:04:55;2.63;;;0.90;;
6117;SDS011;3089;48.202;11.510;2022-08-19T13:07:22;3.20;;;1.20;;
6117;SDS011;3089;48.202;11.510;2022-08-19T13:09:50;2.80;;;1.10;;
6117;SDS011;3089;48.202;11.510;2022-08-19T13:12:19;3.10;;;1.40;;
6117;SDS011;3089;48.202;11.510;2022-08-19T13:14:50;2.50;;;0.93;;
6117;SDS011;3089;48.202;11.510;2022-08-19T13:17:18;2.60;;;1.13;;
6117;SDS011;3089;48.202;11.510;2022-08-19T13:19:47;3.00;;;1.40;;
6117;SDS011;3089;48.202;11.510;2022-08-19T13:22:17;3.13;;;1.40;;
6117;SDS011;3089;48.202;11.510;2022-08-19T13:24:45;3.33;;;1.53;;
6117;SDS011;3089;48.202;11.510;2022-08-19T13:27:13;3.93;;;2.13;;
6117;SDS011;3089;48.202;11.510;2022-08-19T13:29:42;3.50;;;1.60;;
6117;SDS011;3089;48.202;11.510;2022-08-19T13:32:28;5.17;;;1.93;;
6117;SDS011;3089;48.202;11.510;2022-08-19T13:35:15;3.30;;;1.63;;
6117;SDS011;3089;48.202;11.510;2022-08-19T13:37:44;3.77;;;2.03;;
6117;SDS011;3089;48.202;11.510;2022-08-19T13:40:13;4.30;;;2.13;;
6117;SDS011;3089;48.202;11.510;2022-08-19T13:42:45;3.90;;;2.30;;
6117;SDS011;3089;48.202;11.510;2022-08-19T13:45:15;4.90;;;2.77;;
6117;SDS011;3089;48.202;11.510;2022-08-19T13:47:45;5.93;;;3.13;;
6117;SDS011;3089;48.202;11.510;2022-08-19T13:50:14;10.73;;;3.27;;
6117;SDS011;3089;48.202;11.510;2022-08-19T13:52:44;6.27;;;3.43;;
6117;SDS011;3089;48.202;11.510;2022-08-19T13:55:14;6.97;;;3.43;;
6117;SDS011;3089;48.202;11.510;2022-08-19T13:57:50;5.33;;;2.93;;
6117;SDS011;3089;48.202;11.510;2022-08-19T14:00:19;5.40;;;3.00;;
6117;SDS011;3089;48.202;11.510;2022-08-19T14:02:51;4.90;;;3.03;;
6117;SDS011;3089;48.202;11.510;2022-08-19T14:05:21;4.90;;;2.57;;
6117;SDS011;3089;48.202;11.510;2022-08-19T14:07:50;5.90;;;3.20;;
6117;SDS011;3089;48.202;11.510;2022-08-19T14:10:20;5.93;;;2.97;;
6117;SDS011;3089;48.202;11.510;2022-08-19T14:12:52;7.43;;;2.57;;
6117;SDS011;3089;48.202;11.510;2022-08-19T14:15:21;6.57;;;3.60;;
6117;SDS011;3089;48.202;11.510;2022-08-19T14:17:50;5.20;;;3.00;;
6117;SDS011;3089;48.202;11.510;2022-08-19T14:20:18;5.37;;;3.10;;
6117;SDS011;3089;48.202;11.510;2022-08-19T14:22:52;4.63;;;2.73;;
6117;SDS011;3089;48.202;11.510;2022-08-19T14:25:22;5.00;;;3.40;;
6117;SDS011;3089;48.202;11.510;2022-08-19T14:27:52;4.30;;;2.57;;
6117;SDS011;3089;48.202;11.510;2022-08-19T14:30:22;5.00;;;2.73;;
6117;SDS011;3089;48.202;11.510;2022-08-19T14:32:52;6.10;;;2.90;;
6117;SDS011;3089;48.202;11.510;2022-08-19T14:35:21;4.40;;;2.27;;
6117;SDS011;3089;48.202;11.510;2022-08-19T14:37:49;4.13;;;2.43;;
6117;SDS011;3089;48.202;11.510;2022-08-19T14:40:23;5.33;;;2.87;;
6117;SDS011;3089;48.202;11.510;2022-08-19T14:42:53;5.10;;;2.90;;
6117;SDS011;3089;48.202;11.510;2022-08-19T14:45:25;4.90;;;2.80;;
6117;SDS011;3089;48.202;11.510;2022-08-19T14:47:54;5.20;;;3.30;;
6117;SDS011;3089;48.202;11.510;2022-08-19T14:50:22;5.50;;;3.33;;
6117;SDS011;3089;48.202;11.510;2022-08-19T14:52:57;5.40;;;3.00;;
6117;SDS011;3089;48.202;11.510;2022-08-19T14:55:29;4.90;;;3.23;;
6117;SDS011;3089;48.202;11.510;2022-08-19T14:57:57;4.83;;;3.20;;
6117;SDS011;3089;48.202;11.510;2022-08-19T15:00:27;5.10;;;3.23;;
6117;SDS011;3089;48.202;11.510;2022-08-19T15:02:55;5.83;;;3.57;;
6117;SDS011;3089;48.202;11.510;2022-08-19T15:05:23;7.73;;;3.50;;
6117;SDS011;3089;48.202;11.510;2022-08-19T15:07:51;5.77;;;3.20;;
6117;SDS011;3089;48.202;11.510;2022-08-19T15:10:20;6.00;;;3.27;;
6117;SDS011;3089;48.202;11.510;2022-08-19T15:12:51;8.67;;;5.20;;
6117;SDS011;3089;48.202;11.510;2022-08-19T15:15:21;9.10;;;5.77;;